Time;durP1;ratioP1;P1;durP2;ratioP2;P2;SDS_P1;SDS_P2;PMS_P1;PMS_P2;Temp;Humidity;BMP_temperature;BMP_pressure;BME280_temperature;BME280_humidity;BME280_pressure;Samples;Min_cycle;Max_cycle;Signal;HPM_P1;HPM_P2
2021/06/06 00:00:21;;;;;;;4.20;1.88;;;;;;;15.11;91.75;95846.66;5069023;28;20032;-69
2021/06/06 00:02:46;;;;;;;2.40;1.70;;;;;;;14.08;90.25;95720.38;5081439;28;20177;-72
2021/06/06 00:05:13;;;;;;;1.90;1.60;;;;;;;14.76;91.17;95801.09;5110891;28;20630;-70
2021/06/06 00:07:39;;;;;;;1.45;1.35;;;;;;;14.57;90.81;95771.94;5110829;28;20535;-69
2021/06/06 00:10:06;;;;;;;4.88;1.90;;;;;;;15.06;91.04;95836.91;5110829;28;20039;-70
2021/06/06 00:12:32;;;;;;;1.65;1.52;;;;;;;14.71;90.83;95788.66;5110510;28;20032;-70
2021/06/06 00:14:58;;;;;;;2.05;1.70;;;;;;;14.65;90.82;95767.72;5110994;28;20069;-70
2021/06/06 00:17:24;;;;;;;10.25;2.75;;;;;;;14.82;91.59;95776.53;5087654;28;20028;-70
2021/06/06 00:19:49;;;;;;;2.63;2.20;;;;;;;15.01;91.18;95808.38;5089945;28;20039;-70
2021/06/06 00:22:15;;;;;;;3.38;2.17;;;;;;;15.12;91.83;95813.41;5088047;28;20042;-70
2021/06/06 00:24:40;;;;;;;1.88;1.65;;;;;;;14.70;90.84;95740.78;5088447;28;20097;-71
2021/06/06 00:27:06;;;;;;;3.88;2.42;;;;;;;15.27;90.54;95842.41;5088291;28;20362;-71
2021/06/06 00:29:32;;;;;;;1.85;1.60;;;;;;;15.11;89.93;95815.31;5091661;28;20016;-70
2021/06/06 00:31:57;;;;;;;2.33;1.65;;;;;;;14.89;89.04;95786.75;5089282;28;20052;-70
2021/06/06 00:34:24;;;;;;;3.25;1.73;;;;;;;15.27;90.17;95829.78;5065518;28;20036;-70
2021/06/06 00:36:50;;;;;;;1.75;1.65;;;;;;;15.31;90.21;95832.63;5081976;28;20083;-71
2021/06/06 00:39:16;;;;;;;2.40;2.17;;;;;;;14.86;89.63;95798.13;5069275;28;20075;-70
2021/06/06 00:41:44;;;;;;;2.33;1.83;;;;;;;15.17;89.40;95838.16;5071310;28;20465;-71
2021/06/06 00:44:10;;;;;;;2.72;2.00;;;;;;;15.09;89.58;95828.22;5050940;28;20435;-71
2021/06/06 00:46:36;;;;;;;2.67;1.95;;;;;;;15.07;89.83;95838.47;5069191;28;20044;-69
2021/06/06 00:49:02;;;;;;;2.67;2.25;;;;;;;14.80;89.27;95802.84;5076426;28;20124;-69
2021/06/06 00:51:30;;;;;;;2.20;1.80;;;;;;;14.86;89.85;95824.13;5071958;28;20458;-70
2021/06/06 00:54:07;;;;;;;2.10;1.65;;;;;;;14.67;90.19;95817.16;5089965;28;20020;-70
2021/06/06 00:56:33;;;;;;;2.30;2.10;;;;;;;14.76;90.20;95817.97;5073169;28;20041;-70
2021/06/06 00:58:59;;;;;;;2.67;2.17;;;;;;;14.71;90.84;95795.91;5071268;28;20036;-70
2021/06/06 01:01:25;;;;;;;2.15;1.85;;;;;;;14.65;90.51;95810.56;5089118;28;20032;-70
2021/06/06 01:03:53;;;;;;;2.30;2.10;;;;;;;14.45;91.68;95825.28;5078784;28;20127;-70
2021/06/06 01:06:25;;;;;;;2.97;2.15;;;;;;;14.31;92.64;95828.06;5068691;28;20044;-70
2021/06/06 01:08:51;;;;;;;2.40;2.15;;;;;;;14.34;93.09;95781.97;5070659;28;20123;-70
2021/06/06 01:11:21;;;;;;;2.67;2.13;;;;;;;14.73;92.23;95817.78;5068848;28;20041;-69
2021/06/06 01:13:53;;;;;;;3.45;2.47;;;;;;;14.86;92.76;95822.22;5066960;28;20056;-70
2021/06/06 01:16:40;;;;;;;3.10;2.50;;;;;;;14.48;92.46;95787.97;5068626;28;20036;-70
2021/06/06 01:19:19;;;;;;;2.88;2.65;;;;;;;14.55;92.29;95803.59;5073569;28;20047;-69
2021/06/06 01:22:02;;;;;;;4.07;3.67;;;;;;;14.64;92.01;95816.97;5088582;28;20043;-70
2021/06/06 01:25:01;;;;;;;4.97;4.10;;;;;;;14.63;93.31;95810.06;5088225;28;20036;-69
2021/06/06 01:27:30;;;;;;;5.07;4.40;;;;;;;14.27;92.82;95766.34;5084780;28;20142;-69
2021/06/06 01:30:06;;;;;;;4.30;3.90;;;;;;;14.66;93.33;95802.19;5070606;28;20493;-69
2021/06/06 01:32:41;;;;;;;4.10;3.80;;;;;;;14.39;92.52;95799.78;5089804;28;20020;-70
2021/06/06 01:35:09;;;;;;;5.63;4.55;;;;;;;14.33;93.93;95740.25;5068714;28;20124;-70
2021/06/06 01:37:40;;;;;;;4.88;4.45;;;;;;;14.74;94.19;95779.19;5068502;28;20144;-69
2021/06/06 01:40:10;;;;;;;4.50;4.10;;;;;;;15.04;93.63;95813.06;5068351;28;20032;-70
2021/06/06 01:42:40;;;;;;;5.80;4.22;;;;;;;14.77;91.75;95800.78;5068087;28;20032;-69
2021/06/06 01:45:20;;;;;;;8.38;4.18;;;;;;;14.72;93.65;95808.19;5068457;28;20028;-69
2021/06/06 01:47:48;;;;;;;5.35;4.85;;;;;;;14.68;93.46;95788.47;5071657;28;20055;-70
2021/06/06 01:50:19;;;;;;;4.57;3.65;;;;;;;14.87;93.68;95804.25;5072121;28;20032;-69
2021/06/06 01:52:46;;;;;;;5.03;4.18;;;;;;;14.47;93.30;95748.13;5069582;28;20485;-70
2021/06/06 01:55:14;;;;;;;4.88;4.25;;;;;;;14.90;94.73;95790.25;5070107;28;20066;-70
2021/06/06 01:57:42;;;;;;;5.82;5.22;;;;;;;14.56;95.24;95719.50;5088574;28;20043;-69
2021/06/06 02:00:18;;;;;;;5.07;4.57;;;;;;;14.93;94.85;95771.63;5088610;28;20035;-69
2021/06/06 02:02:45;;;;;;;3.28;2.97;;;;;;;14.37;92.77;95738.50;5089496;28;20067;-71
2021/06/06 02:05:15;;;;;;;4.05;3.65;;;;;;;14.44;93.24;95733.50;5079696;28;20031;-69
2021/06/06 02:07:44;;;;;;;4.60;3.80;;;;;;;14.63;93.52;95772.56;5070672;28;20036;-69
2021/06/06 02:10:21;;;;;;;4.85;3.28;;;;;;;14.59;92.99;95783.13;5073858;28;20135;-70
2021/06/06 02:12:50;;;;;;;6.63;3.50;;;;;;;14.50;93.06;95747.53;5091601;28;20465;-69
2021/06/06 02:15:26;;;;;;;3.90;3.60;;;;;;;14.64;93.79;95766.13;5091861;28;20032;-70
2021/06/06 02:17:55;;;;;;;3.55;3.25;;;;;;;14.37;92.67;95743.06;5093797;28;20028;-69
2021/06/06 02:20:25;;;;;;;3.45;3.17;;;;;;;14.79;93.53;95779.84;5073953;28;20655;-69
2021/06/06 02:22:52;;;;;;;4.63;3.90;;;;;;;14.59;92.24;95755.56;5073627;28;20093;-69
2021/06/06 02:25:18;;;;;;;3.65;3.35;;;;;;;14.68;92.75;95759.03;5092048;28;20040;-69
2021/06/06 02:27:54;;;;;;;5.00;3.65;;;;;;;14.86;93.06;95765.97;5091948;28;20654;-69
2021/06/06 02:30:27;;;;;;;4.28;3.97;;;;;;;14.78;93.20;95748.78;5092003;28;20379;-70
2021/06/06 02:33:09;;;;;;;5.00;3.90;;;;;;;15.06;92.84;95783.31;5092105;28;20020;-69
2021/06/06 02:35:46;;;;;;;3.55;3.25;;;;;;;14.09;92.56;95639.00;5072024;28;20048;-70
2021/06/06 02:38:16;;;;;;;3.42;3.13;;;;;;;14.84;91.95;95768.16;5071671;28;20041;-69
2021/06/06 02:40:46;;;;;;;4.70;3.80;;;;;;;14.76;91.98;95739.50;5070239;28;20064;-70
2021/06/06 02:43:20;;;;;;;3.47;3.17;;;;;;;14.84;92.33;95746.75;5069705;28;20115;-72
2021/06/06 02:45:46;;;;;;;6.10;4.05;;;;;;;14.90;91.96;95772.28;5069898;28;20102;-70
2021/06/06 02:48:17;;;;;;;5.00;4.07;;;;;;;14.47;92.63;95735.56;5072731;28;20032;-70
2021/06/06 02:50:45;;;;;;;4.33;3.50;;;;;;;14.60;92.82;95731.16;5091922;28;20024;-70
2021/06/06 02:53:24;;;;;;;5.43;4.22;;;;;;;14.98;93.34;95776.84;5111740;28;20115;-70
2021/06/06 02:55:54;;;;;;;4.95;4.50;;;;;;;14.49;93.56;95716.53;5111983;28;20123;-69
2021/06/06 02:58:25;;;;;;;5.43;4.82;;;;;;;14.74;92.56;95779.19;5093720;28;20122;-70
2021/06/06 03:01:22;;;;;;;4.97;3.72;;;;;;;14.82;92.58;95784.56;5111566;28;20086;-69
2021/06/06 03:03:50;;;;;;;5.20;4.70;;;;;;;14.52;94.36;95722.00;5043263;28;21128;-69
2021/06/06 03:06:23;;;;;;;4.28;3.50;;;;;;;15.02;94.26;95785.03;5070731;28;20213;-71
2021/06/06 03:08:48;;;;;;;5.15;3.50;;;;;;;14.42;92.27;95708.13;5073180;28;20115;-71
2021/06/06 03:11:15;;;;;;;3.95;3.38;;;;;;;14.51;93.41;95712.41;5071270;28;20439;-70
2021/06/06 03:13:48;;;;;;;8.80;3.80;;;;;;;14.78;92.77;95745.31;5070551;28;20124;-71
2021/06/06 03:16:15;;;;;;;4.28;3.92;;;;;;;14.66;91.83;95753.22;5069786;28;20036;-70
2021/06/06 03:18:44;;;;;;;5.35;3.28;;;;;;;14.57;92.58;95779.97;5071932;28;20033;-70
2021/06/06 03:21:18;;;;;;;4.95;4.25;;;;;;;14.45;93.83;95777.88;5069425;28;20020;-70
2021/06/06 03:23:48;;;;;;;4.70;3.90;;;;;;;14.22;94.33;95779.09;5072604;28;20021;-71
2021/06/06 03:26:15;;;;;;;8.07;5.60;;;;;;;14.33;95.26;95742.94;5070872;28;20037;-70
2021/06/06 03:28:41;;;;;;;5.03;4.35;;;;;;;14.77;95.87;95778.56;5071027;28;20444;-69
2021/06/06 03:31:11;;;;;;;6.50;4.78;;;;;;;14.83;96.22;95753.22;5069753;28;20060;-69
2021/06/06 03:33:42;;;;;;;7.93;6.32;;;;;;;15.02;96.46;95768.97;5071575;28;20149;-69
2021/06/06 03:36:07;;;;;;;4.80;4.20;;;;;;;14.56;96.03;95690.84;5092505;28;20020;-69
2021/06/06 03:38:33;;;;;;;3.60;3.35;;;;;;;14.81;94.79;95752.75;5113415;28;20097;-69
2021/06/06 03:40:58;;;;;;;11.43;4.72;;;;;;;14.61;95.13;95754.16;5111265;28;20028;-69
2021/06/06 03:43:24;;;;;;;8.32;4.50;;;;;;;14.29;94.21;95712.53;5111059;28;20028;-69
2021/06/06 03:45:49;;;;;;;6.85;4.88;;;;;;;14.35;93.64;95710.50;5111370;28;20036;-69
2021/06/06 03:48:15;;;;;;;5.28;4.78;;;;;;;13.97;94.31;95698.47;5101789;28;20048;-69
2021/06/06 03:50:42;;;;;;;5.55;5.05;;;;;;;14.52;94.85;95770.19;5071363;28;20466;-69
2021/06/06 03:53:09;;;;;;;6.00;4.55;;;;;;;14.64;93.83;95760.75;5070448;28;20039;-69
2021/06/06 03:55:35;;;;;;;7.35;6.30;;;;;;;14.80;95.34;95761.88;5070705;28;20405;-70
2021/06/06 03:58:00;;;;;;;6.13;4.70;;;;;;;14.80;95.96;95740.47;5070143;28;20077;-69
2021/06/06 04:00:31;;;;;;;4.15;3.75;;;;;;;14.74;95.96;95715.75;5070258;28;20041;-70
2021/06/06 04:02:56;;;;;;;6.05;4.60;;;;;;;15.02;95.46;95742.97;5070965;28;20025;-69
2021/06/06 04:05:21;;;;;;;4.97;3.75;;;;;;;15.18;95.76;95761.22;5083848;28;20023;-69
2021/06/06 04:07:48;;;;;;;3.15;2.88;;;;;;;14.93;93.35;95762.81;5090078;28;20562;-69
2021/06/06 04:10:14;;;;;;;4.78;4.10;;;;;;;14.54;93.36;95690.38;5071791;28;20032;-70
2021/06/06 04:12:39;;;;;;;3.90;3.50;;;;;;;14.96;93.14;95748.81;5089644;28;20032;-69
2021/06/06 04:15:05;;;;;;;5.50;3.92;;;;;;;14.73;94.28;95702.63;5090253;28;20366;-69
2021/06/06 04:17:31;;;;;;;4.97;3.83;;;;;;;14.95;94.31;95728.47;5091034;28;20031;-69
2021/06/06 04:19:57;;;;;;;8.23;5.53;;;;;;;15.19;94.95;95757.44;5070897;28;20036;-68
2021/06/06 04:22:23;;;;;;;9.00;4.32;;;;;;;15.06;95.40;95722.47;5089491;28;20371;-69
2021/06/06 04:24:48;;;;;;;5.78;4.88;;;;;;;15.30;95.22;95747.94;5071736;28;20051;-69
2021/06/06 04:27:14;;;;;;;7.18;6.00;;;;;;;15.37;95.34;95740.22;5088417;28;20024;-69
2021/06/06 04:29:39;;;;;;;4.30;3.90;;;;;;;15.50;95.21;95766.03;5073598;28;20051;-69
2021/06/06 04:32:05;;;;;;;4.28;3.88;;;;;;;15.32;94.72;95735.81;5088894;28;20560;-70
2021/06/06 04:34:33;;;;;;;5.95;4.55;;;;;;;15.25;94.33;95718.63;5082566;28;20052;-68
2021/06/06 04:37:00;;;;;;;4.47;3.30;;;;;;;15.12;94.49;95696.28;5069440;28;20156;-70
2021/06/06 04:39:26;;;;;;;4.05;3.10;;;;;;;15.32;94.49;95732.34;5069510;28;20032;-70
2021/06/06 04:41:52;;;;;;;4.43;3.33;;;;;;;15.47;94.30;95734.53;5071766;28;20374;-71
2021/06/06 04:44:17;;;;;;;3.80;3.50;;;;;;;15.28;93.98;95707.28;5068247;28;20033;-68
2021/06/06 04:46:43;;;;;;;9.32;3.53;;;;;;;15.63;94.18;95750.91;5069863;28;20112;-68
2021/06/06 04:49:08;;;;;;;4.72;3.70;;;;;;;15.22;93.79;95681.78;5076386;28;20495;-68
2021/06/06 04:51:34;;;;;;;3.67;3.38;;;;;;;15.70;94.00;95750.41;5069948;28;20032;-71
2021/06/06 04:54:00;;;;;;;4.75;3.63;;;;;;;15.71;93.55;95752.75;5069237;28;20478;-69
2021/06/06 04:56:27;;;;;;;3.50;2.92;;;;;;;15.73;93.27;95747.88;5071978;28;20055;-70
2021/06/06 04:58:55;;;;;;;3.63;3.28;;;;;;;15.76;93.50;95751.78;5068100;28;20036;-70
2021/06/06 05:01:20;;;;;;;4.80;3.38;;;;;;;15.69;93.58;95730.06;5069268;28;20044;-68
2021/06/06 05:03:46;;;;;;;4.97;3.03;;;;;;;15.46;92.36;95708.81;5074622;28;20032;-70
2021/06/06 05:06:12;;;;;;;6.00;3.80;;;;;;;15.69;93.38;95736.19;5100831;28;20039;-70
2021/06/06 05:08:38;;;;;;;5.43;4.20;;;;;;;15.70;93.38;95734.31;5111375;28;20024;-68
2021/06/06 05:11:04;;;;;;;4.35;3.72;;;;;;;15.85;93.76;95757.91;5091372;28;20047;-68
2021/06/06 05:13:30;;;;;;;3.67;3.33;;;;;;;15.88;93.56;95751.91;5108786;28;20118;-71
2021/06/06 05:15:56;;;;;;;3.78;2.88;;;;;;;15.87;93.04;95736.94;5109496;28;20139;-69
2021/06/06 05:18:23;;;;;;;5.00;3.55;;;;;;;15.91;93.12;95750.47;5106463;28;20097;-69
2021/06/06 05:20:50;;;;;;;4.45;3.03;;;;;;;15.41;93.01;95658.06;5073839;28;20080;-70
2021/06/06 05:23:18;;;;;;;3.30;2.83;;;;;;;15.85;92.54;95723.03;5067221;28;20486;-69
2021/06/06 05:25:43;;;;;;;5.15;3.00;;;;;;;16.02;92.45;95746.31;5067584;28;20051;-68
2021/06/06 05:28:13;;;;;;;4.43;2.65;;;;;;;15.95;92.17;95737.97;5069024;28;20041;-69
2021/06/06 05:30:40;;;;;;;2.83;2.63;;;;;;;16.18;92.01;95760.75;5068992;28;20075;-71
2021/06/06 05:33:06;;;;;;;3.38;3.08;;;;;;;16.17;92.46;95753.00;5067452;28;20410;-71
2021/06/06 05:35:33;;;;;;;3.10;2.90;;;;;;;16.29;92.43;95770.00;5075781;28;20025;-69
2021/06/06 05:37:59;;;;;;;3.28;2.97;;;;;;;16.25;92.50;95750.28;5068812;28;20066;-69
2021/06/06 05:40:27;;;;;;;5.80;3.25;;;;;;;16.35;91.77;95770.63;5069167;28;20064;-73
2021/06/06 05:42:52;;;;;;;3.13;2.65;;;;;;;16.30;92.00;95757.38;5068385;28;20526;-71
2021/06/06 05:45:20;;;;;;;2.70;2.50;;;;;;;16.40;92.02;95767.75;5068566;28;20449;-69
2021/06/06 05:47:46;;;;;;;3.00;2.53;;;;;;;16.28;92.06;95743.50;5070804;28;20037;-69
2021/06/06 05:50:14;;;;;;;3.63;2.42;;;;;;;16.17;92.34;95704.72;5072838;28;20052;-71
2021/06/06 05:52:39;;;;;;;3.17;1.92;;;;;;;16.25;91.83;95701.19;5066315;28;20036;-70
2021/06/06 05:55:06;;;;;;;3.03;2.03;;;;;;;16.50;91.42;95734.34;5068422;28;20190;-71
2021/06/06 05:57:32;;;;;;;1.92;1.55;;;;;;;16.67;90.71;95766.44;5067237;28;20033;-70
2021/06/06 05:59:58;;;;;;;2.10;1.85;;;;;;;16.53;89.94;95734.50;5068609;28;20021;-70
2021/06/06 06:02:23;;;;;;;1.73;1.63;;;;;;;16.52;89.96;95735.59;5070142;28;20040;-70
2021/06/06 06:04:49;;;;;;;2.42;1.60;;;;;;;16.48;90.28;95723.94;5070027;28;20086;-69
2021/06/06 06:07:15;;;;;;;1.60;1.50;;;;;;;16.62;89.87;95763.97;5108429;28;20096;-70
2021/06/06 06:09:41;;;;;;;2.33;1.50;;;;;;;16.73;89.65;95775.13;5108716;28;20034;-70
2021/06/06 06:12:07;;;;;;;2.38;1.48;;;;;;;16.38;88.35;95702.84;5107067;28;20024;-70
2021/06/06 06:14:33;;;;;;;4.15;2.13;;;;;;;16.31;88.74;95687.25;5110430;28;20028;-70
2021/06/06 06:16:59;;;;;;;3.13;1.70;;;;;;;16.69;88.25;95733.91;5108622;28;20036;-70
2021/06/06 06:19:24;;;;;;;4.57;1.70;;;;;;;16.66;88.42;95715.75;5093397;28;20098;-70
2021/06/06 06:21:49;;;;;;;2.13;1.60;;;;;;;16.80;88.62;95735.09;5068139;28;20037;-71
2021/06/06 06:24:15;;;;;;;3.13;1.83;;;;;;;16.59;87.53;95698.25;5068388;28;20028;-69
2021/06/06 06:26:40;;;;;;;2.05;1.50;;;;;;;16.78;88.13;95708.53;5069697;28;20052;-70
2021/06/06 06:29:07;;;;;;;1.85;0.77;;;;;;;16.60;85.98;95680.25;5069053;28;20076;-70
2021/06/06 06:31:33;;;;;;;1.60;1.27;;;;;;;17.06;86.00;95751.00;5067653;28;20124;-69
2021/06/06 06:34:00;;;;;;;1.77;1.52;;;;;;;16.97;86.34;95723.41;5070123;28;20045;-70
2021/06/06 06:36:26;;;;;;;1.45;1.30;;;;;;;17.02;85.46;95731.28;5087405;28;20044;-71
2021/06/06 06:38:52;;;;;;;2.72;1.40;;;;;;;16.98;81.42;95754.53;5110588;28;20023;-69
2021/06/06 06:41:20;;;;;;;1.48;1.38;;;;;;;16.75;84.17;95705.75;5108508;28;20128;-70
2021/06/06 06:43:45;;;;;;;1.60;1.40;;;;;;;16.80;84.57;95711.72;5108243;28;20627;-70
2021/06/06 06:46:11;;;;;;;1.50;1.20;;;;;;;16.62;84.16;95694.13;5108216;28;20128;-69
2021/06/06 06:48:37;;;;;;;2.58;1.45;;;;;;;16.90;83.79;95732.03;5105872;28;20066;-68
2021/06/06 06:51:03;;;;;;;3.28;1.65;;;;;;;17.12;84.40;95750.47;5068511;28;20060;-71
2021/06/06 06:53:28;;;;;;;3.55;1.70;;;;;;;16.88;84.34;95710.03;5067968;28;20028;-71
2021/06/06 06:55:54;;;;;;;1.10;1.00;;;;;;;17.20;84.24;95745.31;5071299;28;20048;-71
2021/06/06 06:58:20;;;;;;;1.50;1.40;;;;;;;17.27;84.06;95750.97;5069853;28;20044;-71
2021/06/06 07:00:48;;;;;;;1.35;1.25;;;;;;;16.87;83.93;95676.25;5069632;28;20098;-71
2021/06/06 07:03:18;;;;;;;1.83;1.40;;;;;;;17.33;82.24;95755.78;5069070;28;20028;-69
2021/06/06 07:05:43;;;;;;;1.65;1.30;;;;;;;17.17;84.04;95711.84;5082696;28;20024;-70
2021/06/06 07:08:12;;;;;;;1.45;1.35;;;;;;;17.23;83.48;95733.91;5111463;28;20549;-70
2021/06/06 07:10:39;;;;;;;10.48;1.75;;;;;;;17.24;84.11;95728.19;5111318;28;20493;-70
2021/06/06 07:13:06;;;;;;;2.70;1.40;;;;;;;17.23;83.54;95723.94;5092485;28;20032;-70
2021/06/06 07:15:32;;;;;;;1.25;1.15;;;;;;;17.30;84.56;95720.72;5111447;28;20456;-71
2021/06/06 07:17:58;;;;;;;0.98;0.98;;;;;;;17.38;81.27;95735.97;5111525;28;20083;-71
2021/06/06 07:20:29;;;;;;;1.67;1.30;;;;;;;17.23;82.84;95736.59;5071518;28;20032;-71
2021/06/06 07:22:55;;;;;;;1.77;0.95;;;;;;;17.14;81.97;95756.28;5108729;28;20509;-69
2021/06/06 07:25:21;;;;;;;1.00;0.90;;;;;;;17.04;83.71;95729.03;5110973;28;20036;-70
2021/06/06 07:27:48;;;;;;;0.90;0.90;;;;;;;17.29;84.63;95730.69;5111293;28;20652;-71
2021/06/06 07:30:22;;;;;;;1.55;1.10;;;;;;;17.48;85.43;95749.00;5111292;28;20416;-72
2021/06/06 07:32:47;;;;;;;0.80;0.80;;;;;;;17.53;81.49;95748.00;5112868;28;20047;-69
2021/06/06 07:35:13;;;;;;;1.10;1.00;;;;;;;17.33;82.09;95728.91;5088765;28;20063;-69
2021/06/06 07:37:39;;;;;;;1.63;1.10;;;;;;;17.32;83.48;95678.16;5087836;28;20060;-69
2021/06/06 07:40:07;;;;;;;0.80;0.80;;;;;;;17.55;79.75;95751.13;5111389;28;20024;-70
2021/06/06 07:42:34;;;;;;;2.08;0.80;;;;;;;17.34;82.04;95676.69;5110485;28;20027;-70
2021/06/06 07:45:00;;;;;;;0.77;0.70;;;;;;;17.53;81.53;95684.25;5110802;28;20011;-70
2021/06/06 07:47:25;;;;;;;2.55;0.80;;;;;;;17.84;80.83;95689.09;5112951;28;20030;-70
2021/06/06 07:49:51;;;;;;;0.70;0.70;;;;;;;17.93;81.65;95678.22;5100117;28;20043;-69
2021/06/06 07:52:16;;;;;;;0.65;0.50;;;;;;;18.32;80.80;95711.72;5069682;28;20075;-69
2021/06/06 07:54:42;;;;;;;0.82;0.63;;;;;;;18.60;80.11;95746.03;5070265;28;20044;-70
2021/06/06 07:57:07;;;;;;;0.60;0.57;;;;;;;18.42;77.68;95732.00;5068704;28;20025;-70
2021/06/06 07:59:35;;;;;;;2.60;0.50;;;;;;;18.70;78.98;95740.19;5072186;28;20023;-70
2021/06/06 08:02:01;;;;;;;0.45;0.45;;;;;;;18.08;75.57;95736.78;5069942;28;20383;-70
2021/06/06 08:04:26;;;;;;;1.35;0.68;;;;;;;18.15;79.00;95742.38;5074092;28;20035;-70
2021/06/06 08:06:53;;;;;;;1.20;0.50;;;;;;;18.21;78.94;95734.84;5071661;28;20040;-70
2021/06/06 08:09:19;;;;;;;0.57;0.57;;;;;;;18.11;79.80;95706.47;5089906;28;20036;-71
2021/06/06 08:11:44;;;;;;;0.60;0.55;;;;;;;18.15;77.84;95725.44;5091996;28;20031;-69
2021/06/06 08:14:10;;;;;;;0.77;0.57;;;;;;;17.87;76.32;95707.28;5089594;28;20044;-70
2021/06/06 08:16:36;;;;;;;0.30;0.30;;;;;;;18.09;79.75;95706.03;5089855;28;20036;-60
2021/06/06 08:19:02;;;;;;;0.98;0.50;;;;;;;17.21;79.15;95538.00;5088879;28;20032;-59
2021/06/06 08:21:35;;;;;;;1.15;0.40;;;;;;;18.76;78.19;95738.81;5080984;28;20135;-59
2021/06/06 08:24:01;;;;;;;0.77;0.47;;;;;;;17.11;76.51;95498.13;5107824;28;20753;-59
2021/06/06 08:26:27;;;;;;;1.02;0.30;;;;;;;18.00;76.16;95604.97;5111848;28;20027;-59
2021/06/06 08:28:54;;;;;;;0.65;0.47;;;;;;;17.51;74.20;95498.22;5109616;28;20038;-59
2021/06/06 08:31:23;;;;;;;0.90;0.30;;;;;;;19.00;74.43;95724.50;5109798;28;20031;-59
2021/06/06 08:33:48;;;;;;;0.52;0.50;;;;;;;18.37;74.02;95613.75;5109126;28;20063;-60
2021/06/06 08:36:19;;;;;;;0.73;0.50;;;;;;;19.03;73.23;95686.03;5081523;28;20051;-60
2021/06/06 08:38:45;;;;;;;0.85;0.43;;;;;;;18.54;75.21;95602.69;5108270;28;20084;-60
2021/06/06 08:41:16;;;;;;;0.95;0.50;;;;;;;19.55;74.21;95763.34;5109796;28;20075;-62
2021/06/06 08:43:57;;;;;;;0.35;0.35;;;;;;;19.37;72.33;95735.88;5109398;28;20032;-58
2021/06/06 08:46:24;;;;;;;1.77;0.50;;;;;;;18.64;73.60;95648.00;5109238;28;20043;-58
2021/06/06 08:48:51;;;;;;;0.77;0.50;;;;;;;19.31;73.37;95733.78;5109636;28;20035;-57
2021/06/06 08:51:32;;;;;;;2.13;0.47;;;;;;;19.21;71.56;95713.50;5076725;28;20125;-57
2021/06/06 08:54:17;;;;;;;1.05;0.68;;;;;;;19.25;72.96;95732.47;5068576;28;20020;-71
2021/06/06 08:56:44;;;;;;;2.13;0.65;;;;;;;18.81;74.63;95633.47;5071185;28;20382;-69
2021/06/06 08:59:22;;;;;;;0.50;0.40;;;;;;;19.68;74.26;95735.16;5067774;28;20448;-65
2021/06/06 09:01:56;;;;;;;1.05;0.40;;;;;;;19.34;73.78;95666.44;5068900;28;20669;-66
2021/06/06 09:04:26;;;;;;;0.30;0.30;;;;;;;20.05;74.70;95740.28;5070071;28;20051;-65
2021/06/06 09:07:00;;;;;;;1.10;0.40;;;;;;;19.56;71.77;95645.41;5071084;28;20048;-63
2021/06/06 09:09:36;;;;;;;0.45;0.45;;;;;;;20.50;71.46;95750.63;5068739;28;20051;-67
2021/06/06 09:12:05;;;;;;;0.50;0.50;;;;;;;20.39;69.86;95743.41;5068553;28;20029;-67
2021/06/06 09:14:31;;;;;;;0.85;0.47;;;;;;;20.45;69.23;95721.16;5070148;28;20020;-68
2021/06/06 09:17:09;;;;;;;0.65;0.28;;;;;;;20.43;69.25;95742.34;5066904;28;20041;-69
2021/06/06 09:19:48;;;;;;;0.40;0.35;;;;;;;19.36;70.51;95658.00;5070484;28;20036;-67
2021/06/06 09:22:27;;;;;;;0.80;0.50;;;;;;;20.02;71.34;95718.63;5084608;28;20552;-66
2021/06/06 09:24:52;;;;;;;0.22;0.22;;;;;;;18.80;71.48;95728.16;5068635;28;20039;-67
2021/06/06 09:27:18;;;;;;;0.80;0.50;;;;;;;18.30;74.27;95746.28;5068392;28;20072;-67
2021/06/06 09:29:44;;;;;;;0.95;0.30;;;;;;;18.40;75.60;95747.75;5070748;28;20034;-66
2021/06/06 09:32:20;;;;;;;0.47;0.20;;;;;;;18.90;75.14;95746.53;5050235;28;20063;-68
2021/06/06 09:34:58;;;;;;;0.55;0.52;;;;;;;17.83;77.94;95746.75;5072653;28;20048;-67
2021/06/06 09:37:27;;;;;;;0.77;0.30;;;;;;;18.11;76.21;95752.22;5068275;28;20108;-67
2021/06/06 09:40:00;;;;;;;0.30;0.30;;;;;;;18.44;75.83;95741.34;5068762;28;20494;-68
2021/06/06 09:42:28;;;;;;;1.45;0.73;;;;;;;17.76;77.08;95746.53;5067858;28;20830;-67
2021/06/06 09:45:20;;;;;;;0.75;0.40;;;;;;;17.69;78.56;95740.84;5070551;28;20090;-71
2021/06/06 09:48:23;;;;;;;0.30;0.25;;;;;;;17.83;77.50;95748.66;5063753;28;20043;-72
2021/06/06 09:50:51;;;;;;;0.20;0.20;;;;;;;18.33;76.12;95748.31;5050936;28;20085;-65
2021/06/06 09:53:16;;;;;;;0.60;0.30;;;;;;;18.92;75.91;95746.97;5075078;28;20043;-66
2021/06/06 09:55:43;;;;;;;0.25;0.25;;;;;;;19.26;72.88;95723.25;5050545;28;20123;-65
2021/06/06 09:58:17;;;;;;;0.63;0.32;;;;;;;19.03;71.58;95715.69;5068209;28;20045;-66
2021/06/06 10:00:49;;;;;;;0.30;0.25;;;;;;;18.57;72.25;95735.91;5068092;28;20044;-68
2021/06/06 10:03:19;;;;;;;;;;;;;;;19.07;71.30;95750.84;5068363;28;20094;-67
2021/06/06 10:05:45;;;;;;;0.40;0.40;;;;;;;19.06;70.39;95750.06;5081692;28;19920;-66
2021/06/06 10:08:26;;;;;;;0.45;0.45;;;;;;;19.26;68.86;95742.91;5090210;28;20047;-65
2021/06/06 10:11:06;;;;;;;0.28;0.25;;;;;;;19.84;68.17;95710.09;5090441;28;20052;-66
2021/06/06 10:13:33;;;;;;;0.28;0.28;;;;;;;18.53;69.35;95735.84;5108099;28;20032;-67
2021/06/06 10:16:05;;;;;;;2.00;0.30;;;;;;;18.64;70.47;95709.19;5107700;27;20051;-66
2021/06/06 10:18:39;;;;;;;0.32;0.32;;;;;;;19.66;68.41;95745.53;5108125;28;20036;-72
2021/06/06 10:21:16;;;;;;;0.40;0.38;;;;;;;19.18;67.58;95663.72;5082898;28;20032;-66
2021/06/06 10:23:45;;;;;;;0.50;0.50;;;;;;;19.98;67.06;95734.75;5069471;28;20021;-65
2021/06/06 10:26:17;;;;;;;0.30;0.30;;;;;;;20.18;66.17;95730.97;5067531;28;20037;-67
2021/06/06 10:28:52;;;;;;;0.52;0.40;;;;;;;20.40;65.18;95747.66;5064682;28;20460;-61
2021/06/06 10:31:29;;;;;;;0.30;0.30;;;;;;;20.44;64.84;95718.81;5070003;28;20032;-62
2021/06/06 10:34:22;;;;;;;1.95;0.30;;;;;;;20.73;64.29;95679.69;5069902;28;20148;-63
2021/06/06 10:36:48;;;;;;;2.13;1.20;;;;;;;21.34;63.49;95745.78;5071981;28;20041;-62
2021/06/06 10:39:22;;;;;;;0.47;0.47;;;;;;;21.43;61.18;95746.34;5071433;28;20031;-63
2021/06/06 10:42:02;;;;;;;0.82;0.38;;;;;;;21.25;61.85;95725.13;5073322;28;20021;-62
2021/06/06 10:44:35;;;;;;;0.75;0.52;;;;;;;20.86;61.68;95710.06;5071164;28;20127;-63
2021/06/06 10:47:09;;;;;;;2.53;0.40;;;;;;;19.41;60.89;95515.56;5070927;28;20040;-63
2021/06/06 10:49:47;;;;;;;2.05;0.40;;;;;;;20.60;62.99;95638.47;5070788;28;20035;-63
2021/06/06 10:52:40;;;;;;;0.77;0.40;;;;;;;20.84;61.50;95642.03;5070472;28;20040;-62
2021/06/06 10:55:31;;;;;;;1.85;0.80;;;;;;;20.82;63.47;95687.56;5070794;28;20044;-62
2021/06/06 10:58:10;;;;;;;3.50;0.40;;;;;;;20.94;60.52;95712.56;5069209;28;20048;-62
2021/06/06 11:00:42;;;;;;;0.50;0.43;;;;;;;20.91;60.19;95701.66;5068754;28;20043;-62
2021/06/06 11:03:10;;;;;;;0.60;0.40;;;;;;;21.56;60.23;95733.44;5070341;28;20025;-62
2021/06/06 11:05:57;;;;;;;0.40;0.40;;;;;;;20.34;59.73;95595.84;5073671;28;20055;-62
2021/06/06 11:08:33;;;;;;;1.40;1.30;;;;;;;21.49;62.01;95731.38;5070937;28;20448;-62
2021/06/06 11:11:26;;;;;;;0.93;0.50;;;;;;;20.07;62.07;95557.09;5070777;28;20037;-62
2021/06/06 11:13:55;;;;;;;0.43;0.43;;;;;;;19.71;63.94;95548.25;5052589;28;20041;-62
2021/06/06 11:18:58;;;;;;;0.52;0.30;;;;;;;19.18;67.18;95712.25;5055997;28;20117;-59
2021/06/06 11:21:59;;;;;;;0.57;0.43;;;;;;;20.43;65.33;95709.91;5070524;28;20097;-59
2021/06/06 11:24:44;;;;;;;0.40;0.40;;;;;;;20.82;63.83;95720.78;5050417;28;20131;-59
2021/06/06 11:27:10;;;;;;;0.65;0.22;;;;;;;19.56;66.68;95727.13;5050337;28;20313;-59
2021/06/06 11:29:47;;;;;;;1.30;0.50;;;;;;;20.58;66.55;95721.84;5051187;28;20025;-59
2021/06/06 11:32:13;;;;;;;0.60;0.32;;;;;;;21.00;63.99;95723.88;5050170;28;20044;-60
2021/06/06 11:34:42;;;;;;;0.90;0.60;;;;;;;20.96;63.63;95715.66;5050041;28;20247;-60
2021/06/06 11:37:14;;;;;;;0.73;0.30;;;;;;;20.72;64.09;95721.34;5051490;28;20131;-61
2021/06/06 11:39:48;;;;;;;0.30;0.30;;;;;;;21.28;64.50;95705.47;5070019;28;20036;-60
2021/06/06 11:42:16;;;;;;;0.30;0.30;;;;;;;21.35;63.27;95712.19;5070032;28;20036;-60
2021/06/06 11:44:55;;;;;;;0.30;0.30;;;;;;;21.71;63.16;95708.19;5072334;28;20147;-59
2021/06/06 11:47:30;;;;;;;0.52;0.43;;;;;;;21.54;61.16;95702.06;5052320;28;20086;-60